Terminal Aerodrome Forecast
Issued by NWS

Home | Current Version | Previous Version | Text Only | Print | Product List | Glossary On
Versions: 1 2 3 4 5 6 7 8 9 10 11 12 13 14 15
227
FTUS46 KPDT 021738
TAFYKM
TAF
KYKM 021738Z 0218/0318 20006KT P6SM VCSH BKN070 OVC100
     FM030200 25006KT P6SM SCT060 BKN250
     FM030600 27005KT P6SM FEW060 BKN200=

USA.gov is the U.S. government's official web portal to all federal, state and local government web resources and services.